Azamara Quest — V7DM6 — position and weather

sailwx.info

Track history (hours):
 
Tides and Currents Weather Stations Pressure Air Temp Water Temp Dewpoint Dewpoint Depression Visibility Wind Speed Wind Dir Waves Ship Positions

Azamara Quest

Last reported at 2017-Sep-19 15:11 UTC. Time now 2017-Sep-20 00:34 UTC.
Position N 55°13' E 011°06'.

Length 184 m; draft 10.6 m.

Type: Ship. MMSI: 538005401.

Date/timePositionNaut miles runAvg speedWind from/ knotsBaromVisibWave heightAir tempDewpointWater temp
2017-Sep-19 15:11N 55°13' E 011°06'212.7
2017-Sep-19 15:00N 55°11' E 011°05'713.3
2017-Sep-19 14:30N 55°05' E 011°02'612.5
2017-Sep-19 14:00N 54°59' E 010°59'612.3
2017-Sep-19 13:30N 54°54' E 010°52'611.0
2017-Sep-19 13:00N 54°49' E 010°50'612.8
2017-Sep-19 12:30N 54°43' E 010°51'612.9
2017-Sep-19 12:00N 54°39' E 011°01'713.4
2017-Sep-19 11:30N 54°37' E 011°11'713.2
2017-Sep-19 11:00N 54°33' E 011°21'713.1
2017-Sep-19 10:30N 54°31' E 011°32'612.9
2017-Sep-19 10:00N 54°28' E 011°42'612.7
2017-Sep-19 09:30N 54°27' E 011°53'612.5
2017-Sep-19 09:00N 54°27' E 012°04'611.2
2017-Sep-19 08:30N 54°29' E 012°12'713.1
2017-Sep-19 08:00N 54°35' E 012°16'510.6
2017-Sep-19 07:30N 54°39' E 012°22'712.5
2017-Sep-19 06:58N 54°42' E 012°32'712.9
2017-Sep-19 06:23N 54°46' E 012°43'512.7
2017-Sep-19 06:00N 54°48' E 012°51'2812.8
2017-Sep-19 03:49N 54°59' E 013°36'512.7
2017-Sep-19 03:27N 55°00' E 013°44'712.6
2017-Sep-19 02:54N 55°03' E 013°55'612.7
2017-Sep-19 02:27N 55°04' E 014°04'613.0
2017-Sep-19 02:00N 55°09' E 014°11'713.1
2017-Sep-19 01:29N 55°14' E 014°19'613.2
2017-Sep-19 01:00N 55°19' E 014°25'713.3
2017-Sep-19 00:30N 55°24' E 014°33'713.1
2017-Sep-19 00:00N 55°28' E 014°42'713.4
2017-Sep-18 23:30N 55°31' E 014°53'713.2
2017-Sep-18 22:56N 55°34' E 015°05'613.0
2017-Sep-18 22:30N 55°37' E 015°14'613.0
2017-Sep-18 22:00N 55°39' E 015°25'612.9
2017-Sep-18 21:30N 55°40' E 015°36'612.9
2017-Sep-18 21:00N 55°41' E 015°47'612.9
2017-Sep-18 20:30N 55°43' E 015°58'612.9
2017-Sep-18 20:00N 55°44' E 016°09'612.8
2017-Sep-18 19:30N 55°46' E 016°20'612.6
2017-Sep-18 19:00N 55°48' E 016°31'612.5
2017-Sep-18 18:30N 55°49' E 016°42'612.4
2017-Sep-18 18:00N 55°51' E 016°53'29912.8
2017-Sep-17 18:34N 59°36' E 023°02'313.6
2017-Sep-17 18:22N 59°36' E 023°07'513.4
2017-Sep-17 18:00N 59°38' E 023°17'613.0
2017-Sep-17 17:31N 59°39' E 023°29'713.1
2017-Sep-17 16:59N 59°41' E 023°42'613.1
2017-Sep-17 16:31N 59°43' E 023°54'713.5
2017-Sep-17 15:58N 59°46' E 024°08'613.2
2017-Sep-17 15:30N 59°47' E 024°19'713.0
2017-Sep-17 15:00N 59°49' E 024°32'613.0
2017-Sep-17 14:30N 59°51' E 024°44'4513.0
2017-Sep-17 11:03N 59°59' E 026°12'112.9
2017-Sep-17 11:00N 59°59' E 026°13'612.9
2017-Sep-17 10:30N 60°00' E 026°26'612.7
2017-Sep-17 10:00N 60°01' E 026°38'713.1
2017-Sep-17 09:30N 60°00' E 026°51'612.8
2017-Sep-17 09:01N 59°60' E 027°04'713.0
2017-Sep-17 08:30N 60°03' E 027°15'713.1
2017-Sep-17 08:00N 60°06' E 027°26'713.4
2017-Sep-17 07:31N 60°10' E 027°37'612.7
2017-Sep-17 07:00N 60°14' E 027°48'713.1
2017-Sep-17 06:30N 60°19' E 027°56'713.1
2017-Sep-17 06:00N 60°24' E 028°04'4 8.1
2017-Sep-17 05:30N 60°26' E 028°12'5 0.1
2017-Sep-15 16:16N 60°28' E 028°22'312.2
2017-Sep-15 16:00N 60°26' E 028°17'611.2
2017-Sep-15 15:30N 60°25' E 028°06'510.0
2017-Sep-15 15:00N 60°21' E 027°60'612.0
2017-Sep-15 14:30N 60°16' E 027°52'612.5
2017-Sep-15 14:00N 60°10' E 027°46'713.1
2017-Sep-15 13:30N 60°07' E 027°35'613.0
2017-Sep-15 13:00N 60°04' E 027°24'713.2
2017-Sep-15 12:30N 60°00' E 027°12'612.9
2017-Sep-15 12:00N 59°58' E 027°00'713.6
2017-Sep-15 11:30N 59°59' E 026°47'713.3
2017-Sep-15 11:00N 59°59' E 026°33'713.6
2017-Sep-15 10:30N 59°57' E 026°20'4113.5
2017-Sep-15 07:27N 59°47' E 024°60'613.5
2017-Sep-15 07:00N 59°46' E 024°48'713.6
2017-Sep-15 06:30N 59°45' E 024°35'713.7
2017-Sep-15 06:00N 59°43' E 024°22'813.3
2017-Sep-15 05:25N 59°41' E 024°07'613.2
2017-Sep-15 04:59N 59°39' E 023°56'713.6
2017-Sep-15 04:30N 59°37' E 023°44'713.8
2017-Sep-15 04:00N 59°35' E 023°31'713.8
2017-Sep-15 03:30N 59°33' E 023°18'713.8
2017-Sep-15 03:00N 59°31' E 023°05'29013.7
2017-Sep-14 05:49N 56°03' E 016°46'614.1
2017-Sep-14 05:23N 55°60' E 016°37'514.2
2017-Sep-14 05:01N 55°57' E 016°29'714.3
2017-Sep-14 04:31N 55°54' E 016°17'714.3
2017-Sep-14 04:00N 55°51' E 016°06'714.3
2017-Sep-14 03:31N 55°48' E 015°55'714.4
2017-Sep-14 03:00N 55°44' E 015°44'714.6
2017-Sep-14 02:30N 55°41' E 015°32'714.6
2017-Sep-14 02:01N 55°37' E 015°21'714.6
2017-Sep-14 01:31N 55°34' E 015°10'814.7
2017-Sep-14 00:59N 55°30' E 014°58'814.9
2017-Sep-14 00:28N 55°26' E 014°45'714.3
2017-Sep-14 00:00N 55°23' E 014°36'714.3
2017-Sep-13 23:30N 55°17' E 014°29'714.1
2017-Sep-13 23:00N 55°11' E 014°21'714.7
2017-Sep-13 22:30N 55°10' E 014°09'2414.6
2017-Sep-13 20:52N 55°13' E 013°27'514.6
2017-Sep-13 20:30N 55°13' E 013°18'714.7
2017-Sep-13 20:00N 55°14' E 013°05'714.9
2017-Sep-13 19:30N 55°15' E 012°52'714.8
2017-Sep-13 19:00N 55°17' E 012°40'611.9
2017-Sep-13 18:30N 55°23' E 012°40'612.8
2017-Sep-13 18:00N 55°30' E 012°42'4 8.7
2017-Sep-13 17:30N 55°34' E 012°42'4 7.9
2017-Sep-13 17:00N 55°38' E 012°42'510.2
2017-Sep-13 16:30N 55°43' E 012°41'713.2
2017-Sep-13 16:00N 55°49' E 012°42'713.3
2017-Sep-13 15:30N 55°56' E 012°38'612.5
2017-Sep-13 15:00N 56°02' E 012°38'5 9.6
2017-Sep-13 14:30N 56°06' E 012°33'4 8.9
2017-Sep-13 14:00N 56°09' E 012°27'611.9
2017-Sep-13 13:30N 56°12' E 012°18'6712.7
2017-Sep-13 08:12N 57°15' E 011°33'313.3
2017-Sep-13 08:00N 57°17' E 011°31'713.0
2017-Sep-13 07:30N 57°23' E 011°27'612.5
2017-Sep-13 07:00N 57°29' E 011°22'713.3
2017-Sep-13 06:30N 57°34' E 011°13'612.6
2017-Sep-13 06:00N 57°38' E 011°04'713.5
2017-Sep-13 05:29N 57°42' E 010°55'813.5
2017-Sep-13 04:56N 57°48' E 010°45'615.1
2017-Sep-13 04:30N 57°48' E 010°33'815.1
2017-Sep-13 04:00N 57°48' E 010°19'914.0
2017-Sep-13 03:19N 57°48' E 010°01'45313.1
2017-Sep-11 16:40N 51°45' E 002°12'715.2
2017-Sep-11 16:13N 51°40' E 002°04'415.1
2017-Sep-11 15:59N 51°37' E 002°00'714.8
2017-Sep-11 15:30N 51°34' E 001°51'714.5
2017-Sep-11 15:00N 51°30' E 001°40'713.6
2017-Sep-11 14:30N 51°27' E 001°31'3 6.8
2017-Sep-11 14:00N 51°28' E 001°26'611.5
2017-Sep-11 13:30N 51°29' E 001°17'510.5
2017-Sep-11 13:00N 51°29' E 001°08'5 9.2
2017-Sep-11 12:30N 51°29' E 001°01'611.1
2017-Sep-11 11:55N 51°29' E 000°50'  
Track history (hours):
 
Tides and Currents Weather Stations Pressure Air Temp Water Temp Dewpoint Dewpoint Depression Visibility Wind Speed Wind Dir Waves Ship Positions

Azamara Quest

Last reported at 2017-Sep-19 15:11 UTC. Time now 2017-Sep-20 00:34 UTC.
Position N 55°13' E 011°06'.

Length 184 m; draft 10.6 m.

Type: Ship. MMSI: 538005401.

Date/timePositionNaut miles runAvg speedWind from/ knotsBaromVisibWave heightAir tempDewpointWater temp
2017-Sep-19 15:11N 55°13' E 011°06'212.7
2017-Sep-19 15:00N 55°11' E 011°05'713.3
2017-Sep-19 14:30N 55°05' E 011°02'612.5
2017-Sep-19 14:00N 54°59' E 010°59'612.3
2017-Sep-19 13:30N 54°54' E 010°52'611.0
2017-Sep-19 13:00N 54°49' E 010°50'612.8
2017-Sep-19 12:30N 54°43' E 010°51'612.9
2017-Sep-19 12:00N 54°39' E 011°01'713.4
2017-Sep-19 11:30N 54°37' E 011°11'713.2
2017-Sep-19 11:00N 54°33' E 011°21'713.1
2017-Sep-19 10:30N 54°31' E 011°32'612.9
2017-Sep-19 10:00N 54°28' E 011°42'612.7
2017-Sep-19 09:30N 54°27' E 011°53'612.5
2017-Sep-19 09:00N 54°27' E 012°04'611.2
2017-Sep-19 08:30N 54°29' E 012°12'713.1
2017-Sep-19 08:00N 54°35' E 012°16'510.6
2017-Sep-19 07:30N 54°39' E 012°22'712.5
2017-Sep-19 06:58N 54°42' E 012°32'712.9
2017-Sep-19 06:23N 54°46' E 012°43'512.7
2017-Sep-19 06:00N 54°48' E 012°51'2812.8
2017-Sep-19 03:49N 54°59' E 013°36'512.7
2017-Sep-19 03:27N 55°00' E 013°44'712.6
2017-Sep-19 02:54N 55°03' E 013°55'612.7
2017-Sep-19 02:27N 55°04' E 014°04'613.0
2017-Sep-19 02:00N 55°09' E 014°11'713.1
2017-Sep-19 01:29N 55°14' E 014°19'613.2
2017-Sep-19 01:00N 55°19' E 014°25'713.3
2017-Sep-19 00:30N 55°24' E 014°33'713.1
2017-Sep-19 00:00N 55°28' E 014°42'713.4
2017-Sep-18 23:30N 55°31' E 014°53'713.2
2017-Sep-18 22:56N 55°34' E 015°05'613.0
2017-Sep-18 22:30N 55°37' E 015°14'613.0
2017-Sep-18 22:00N 55°39' E 015°25'612.9
2017-Sep-18 21:30N 55°40' E 015°36'612.9
2017-Sep-18 21:00N 55°41' E 015°47'612.9
2017-Sep-18 20:30N 55°43' E 015°58'612.9
2017-Sep-18 20:00N 55°44' E 016°09'612.8
2017-Sep-18 19:30N 55°46' E 016°20'612.6
2017-Sep-18 19:00N 55°48' E 016°31'612.5
2017-Sep-18 18:30N 55°49' E 016°42'612.4
2017-Sep-18 18:00N 55°51' E 016°53'29912.8
2017-Sep-17 18:34N 59°36' E 023°02'313.6
2017-Sep-17 18:22N 59°36' E 023°07'513.4
2017-Sep-17 18:00N 59°38' E 023°17'613.0
2017-Sep-17 17:31N 59°39' E 023°29'713.1
2017-Sep-17 16:59N 59°41' E 023°42'613.1
2017-Sep-17 16:31N 59°43' E 023°54'713.5
2017-Sep-17 15:58N 59°46' E 024°08'613.2
2017-Sep-17 15:30N 59°47' E 024°19'713.0
2017-Sep-17 15:00N 59°49' E 024°32'613.0
2017-Sep-17 14:30N 59°51' E 024°44'4513.0
2017-Sep-17 11:03N 59°59' E 026°12'112.9
2017-Sep-17 11:00N 59°59' E 026°13'612.9
2017-Sep-17 10:30N 60°00' E 026°26'612.7
2017-Sep-17 10:00N 60°01' E 026°38'713.1
2017-Sep-17 09:30N 60°00' E 026°51'612.8
2017-Sep-17 09:01N 59°60' E 027°04'713.0
2017-Sep-17 08:30N 60°03' E 027°15'713.1
2017-Sep-17 08:00N 60°06' E 027°26'713.4
2017-Sep-17 07:31N 60°10' E 027°37'612.7
2017-Sep-17 07:00N 60°14' E 027°48'713.1
2017-Sep-17 06:30N 60°19' E 027°56'713.1
2017-Sep-17 06:00N 60°24' E 028°04'4 8.1
2017-Sep-17 05:30N 60°26' E 028°12'5 0.1
2017-Sep-15 16:16N 60°28' E 028°22'312.2
2017-Sep-15 16:00N 60°26' E 028°17'611.2
2017-Sep-15 15:30N 60°25' E 028°06'510.0
2017-Sep-15 15:00N 60°21' E 027°60'612.0
2017-Sep-15 14:30N 60°16' E 027°52'612.5
2017-Sep-15 14:00N 60°10' E 027°46'713.1
2017-Sep-15 13:30N 60°07' E 027°35'613.0
2017-Sep-15 13:00N 60°04' E 027°24'713.2
2017-Sep-15 12:30N 60°00' E 027°12'612.9
2017-Sep-15 12:00N 59°58' E 027°00'713.6
2017-Sep-15 11:30N 59°59' E 026°47'713.3
2017-Sep-15 11:00N 59°59' E 026°33'713.6
2017-Sep-15 10:30N 59°57' E 026°20'4113.5
2017-Sep-15 07:27N 59°47' E 024°60'613.5
2017-Sep-15 07:00N 59°46' E 024°48'713.6
2017-Sep-15 06:30N 59°45' E 024°35'713.7
2017-Sep-15 06:00N 59°43' E 024°22'813.3
2017-Sep-15 05:25N 59°41' E 024°07'613.2
2017-Sep-15 04:59N 59°39' E 023°56'713.6
2017-Sep-15 04:30N 59°37' E 023°44'713.8
2017-Sep-15 04:00N 59°35' E 023°31'713.8
2017-Sep-15 03:30N 59°33' E 023°18'713.8
2017-Sep-15 03:00N 59°31' E 023°05'29013.7
2017-Sep-14 05:49N 56°03' E 016°46'614.1
2017-Sep-14 05:23N 55°60' E 016°37'514.2
2017-Sep-14 05:01N 55°57' E 016°29'714.3
2017-Sep-14 04:31N 55°54' E 016°17'714.3
2017-Sep-14 04:00N 55°51' E 016°06'714.3
2017-Sep-14 03:31N 55°48' E 015°55'714.4
2017-Sep-14 03:00N 55°44' E 015°44'714.6
2017-Sep-14 02:30N 55°41' E 015°32'714.6
2017-Sep-14 02:01N 55°37' E 015°21'714.6
2017-Sep-14 01:31N 55°34' E 015°10'814.7
2017-Sep-14 00:59N 55°30' E 014°58'814.9
2017-Sep-14 00:28N 55°26' E 014°45'714.3
2017-Sep-14 00:00N 55°23' E 014°36'714.3
2017-Sep-13 23:30N 55°17' E 014°29'714.1
2017-Sep-13 23:00N 55°11' E 014°21'714.7
2017-Sep-13 22:30N 55°10' E 014°09'2414.6
2017-Sep-13 20:52N 55°13' E 013°27'514.6
2017-Sep-13 20:30N 55°13' E 013°18'714.7
2017-Sep-13 20:00N 55°14' E 013°05'714.9
2017-Sep-13 19:30N 55°15' E 012°52'714.8
2017-Sep-13 19:00N 55°17' E 012°40'611.9
2017-Sep-13 18:30N 55°23' E 012°40'612.8
2017-Sep-13 18:00N 55°30' E 012°42'4 8.7
2017-Sep-13 17:30N 55°34' E 012°42'4 7.9
2017-Sep-13 17:00N 55°38' E 012°42'510.2
2017-Sep-13 16:30N 55°43' E 012°41'713.2
2017-Sep-13 16:00N 55°49' E 012°42'713.3
2017-Sep-13 15:30N 55°56' E 012°38'612.5
2017-Sep-13 15:00N 56°02' E 012°38'5 9.6
2017-Sep-13 14:30N 56°06' E 012°33'4 8.9
2017-Sep-13 14:00N 56°09' E 012°27'611.9
2017-Sep-13 13:30N 56°12' E 012°18'6712.7
2017-Sep-13 08:12N 57°15' E 011°33'313.3
2017-Sep-13 08:00N 57°17' E 011°31'713.0
2017-Sep-13 07:30N 57°23' E 011°27'612.5
2017-Sep-13 07:00N 57°29' E 011°22'713.3
2017-Sep-13 06:30N 57°34' E 011°13'612.6
2017-Sep-13 06:00N 57°38' E 011°04'713.5
2017-Sep-13 05:29N 57°42' E 010°55'813.5
2017-Sep-13 04:56N 57°48' E 010°45'615.1
2017-Sep-13 04:30N 57°48' E 010°33'815.1
2017-Sep-13 04:00N 57°48' E 010°19'914.0
2017-Sep-13 03:19N 57°48' E 010°01'45313.1
2017-Sep-11 16:40N 51°45' E 002°12'715.2
2017-Sep-11 16:13N 51°40' E 002°04'415.1
2017-Sep-11 15:59N 51°37' E 002°00'714.8
2017-Sep-11 15:30N 51°34' E 001°51'714.5
2017-Sep-11 15:00N 51°30' E 001°40'713.6
2017-Sep-11 14:30N 51°27' E 001°31'3 6.8
2017-Sep-11 14:00N 51°28' E 001°26'611.5
2017-Sep-11 13:30N 51°29' E 001°17'510.5
2017-Sep-11 13:00N 51°29' E 001°08'5 9.2
2017-Sep-11 12:30N 51°29' E 001°01'611.1
2017-Sep-11 11:55N 51°29' E 000°50'  

Dump ship's entire track history